Terminal Aerodrome Forecast
Issued by NWS Billings, MT

Home | Current Version | Previous Version | Text Only | Print | Product List | Glossary On
Versions: 1 2 3 4 5 6 7 8 9 10 11 12 13 14 15 16 17 18 19 20 21 22 23 24 25 26 27 28 29 30 31 32 33
000
FTUS45 KBYZ 301446 AAA
TAFBIL
TAF AMD
KBIL 301446Z 3015/3112 23010KT P6SM VCTS FEW080CB BKN120
      TEMPO 3015/3016 31015G25KT
     FM301600 08008KT P6SM SCT080
     FM302200 14013KT P6SM VCTS BKN090CB
     FM310300 29025G35KT P6SM BKN100
     FM310900 31012KT P6SM SCT100=

USA.gov is the U.S. government's official web portal to all federal, state and local government web resources and services.